Time;durP1;ratioP1;P1;durP2;ratioP2;P2;SDS_P1;SDS_P2;PMS_P1;PMS_P2;Temp;Humidity;BMP_temperature;BMP_pressure;BME280_temperature;BME280_humidity;BME280_pressure;Samples;Min_cycle;Max_cycle;Signal;HPM_P1;HPM_P2
2023/03/15 00:02:00;;;;;;;0.90;0.90;;;;;;;7.49;63.43;99070.16;5091985;28;20252;-71
2023/03/15 00:04:27;;;;;;;0.90;0.90;;;;;;;7.67;63.47;99084.09;5090662;28;20214;-70
2023/03/15 00:06:54;;;;;;;1.47;1.47;;;;;;;7.67;63.73;99082.38;5091381;28;20209;-70
2023/03/15 00:09:23;;;;;;;0.77;0.77;;;;;;;7.69;63.56;99077.22;5088346;28;20194;-70
2023/03/15 00:11:50;;;;;;;0.70;0.70;;;;;;;7.65;64.75;99078.06;5091483;28;20289;-70
2023/03/15 00:14:16;;;;;;;0.70;0.70;;;;;;;7.65;64.87;99072.91;5090794;28;20209;-70
2023/03/15 00:16:45;;;;;;;0.60;0.60;;;;;;;7.65;66.03;99076.34;5071188;28;20617;-71
2023/03/15 00:19:11;;;;;;;0.70;0.70;;;;;;;7.46;66.87;99046.91;5073766;28;20202;-70
2023/03/15 00:21:42;;;;;;;0.90;0.90;;;;;;;7.59;66.90;99070.25;5091194;28;20223;-71
2023/03/15 00:24:09;;;;;;;0.87;0.87;;;;;;;7.46;68.95;99066.66;5091295;28;20222;-70
2023/03/15 00:26:36;;;;;;;0.90;0.90;;;;;;;7.38;70.22;99066.56;5091017;28;20202;-71
2023/03/15 00:29:03;;;;;;;0.80;0.80;;;;;;;7.26;72.20;99069.03;5091137;28;20205;-71
2023/03/15 00:31:29;;;;;;;0.83;0.83;;;;;;;7.23;73.12;99058.69;5091237;28;20210;-71
2023/03/15 00:33:57;;;;;;;1.70;1.70;;;;;;;7.18;75.00;99062.91;5091129;28;20568;-70
2023/03/15 00:36:25;;;;;;;0.70;0.70;;;;;;;7.16;75.60;99056.88;5055443;28;20198;-71
2023/03/15 00:38:54;;;;;;;0.80;0.80;;;;;;;7.15;76.62;99054.28;5091412;28;20202;-70
2023/03/15 00:41:22;;;;;;;0.93;0.93;;;;;;;6.94;77.61;99047.16;5091112;28;20198;-69
2023/03/15 00:43:50;;;;;;;0.80;0.80;;;;;;;6.93;78.52;99058.28;5090919;28;20260;-69
2023/03/15 00:46:18;;;;;;;1.90;1.73;;;;;;;6.73;79.52;99052.03;5090445;28;20732;-70
2023/03/15 00:48:48;;;;;;;0.70;0.70;;;;;;;6.71;81.07;99058.84;5091250;28;20205;-70
2023/03/15 00:51:18;;;;;;;0.80;0.80;;;;;;;6.56;82.63;99020.03;5090397;28;20649;-70
2023/03/15 00:53:47;;;;;;;0.90;0.90;;;;;;;6.69;83.30;99050.25;5089045;28;20308;-70
2023/03/15 00:56:16;;;;;;;0.73;0.73;;;;;;;6.58;83.61;99021.78;5086845;28;20236;-70
2023/03/15 00:58:44;;;;;;;0.80;0.80;;;;;;;6.65;84.49;99041.63;5089487;28;20225;-70
2023/03/15 01:01:12;;;;;;;1.13;1.13;;;;;;;6.70;84.51;99027.09;5090770;28;20198;-70
2023/03/15 01:03:40;;;;;;;0.93;0.93;;;;;;;6.63;84.40;99007.28;5090728;28;20226;-70
2023/03/15 01:06:11;;;;;;;0.90;0.90;;;;;;;6.84;84.29;99024.72;5090192;28;20233;-71
2023/03/15 01:08:40;;;;;;;0.90;0.90;;;;;;;6.88;84.15;99013.59;5091169;28;20228;-70
2023/03/15 01:11:10;;;;;;;0.80;0.80;;;;;;;6.97;83.61;99013.69;5090540;28;20198;-70
2023/03/15 01:13:38;;;;;;;0.80;0.80;;;;;;;6.84;83.82;98996.38;5090954;28;20194;-71
2023/03/15 01:16:05;;;;;;;0.80;0.80;;;;;;;6.96;82.69;99010.25;5054919;28;20217;-71
2023/03/15 01:18:32;;;;;;;0.93;0.93;;;;;;;7.01;82.21;99007.72;5055342;28;20193;-72
2023/03/15 01:21:00;;;;;;;0.77;0.77;;;;;;;7.07;82.58;99002.66;5090522;28;20209;-70
2023/03/15 01:23:26;;;;;;;1.13;1.13;;;;;;;7.05;80.64;98998.31;5093453;28;20218;-70
2023/03/15 01:25:54;;;;;;;0.97;0.97;;;;;;;7.01;79.33;98984.53;5093778;28;20197;-71
2023/03/15 01:28:21;;;;;;;0.70;0.70;;;;;;;7.08;76.67;99003.50;5094316;28;20717;-71
2023/03/15 01:30:52;;;;;;;1.00;1.00;;;;;;;7.14;74.77;99007.03;5094501;28;20198;-71
2023/03/15 01:33:19;;;;;;;0.80;0.80;;;;;;;7.15;74.93;99011.34;5094472;28;20229;-71
2023/03/15 01:35:46;;;;;;;0.70;0.70;;;;;;;7.15;74.76;99003.59;5094511;28;20646;-71
2023/03/15 01:38:13;;;;;;;0.90;0.90;;;;;;;7.19;74.80;98997.63;5094391;28;20202;-70
2023/03/15 01:40:43;;;;;;;1.00;1.00;;;;;;;7.24;74.93;98997.69;5094491;28;20194;-71
2023/03/15 01:43:19;;;;;;;0.90;0.90;;;;;;;7.23;75.90;99007.13;5094230;28;20198;-71
2023/03/15 01:45:59;;;;;;;1.13;1.13;;;;;;;7.26;81.83;99007.16;5093965;28;20202;-71
2023/03/15 01:48:31;;;;;;;0.70;0.70;;;;;;;7.11;84.29;98982.94;5093946;28;20190;-71
2023/03/15 01:51:00;;;;;;;0.70;0.70;;;;;;;7.20;87.33;99004.53;5094362;28;20198;-71
2023/03/15 01:53:28;;;;;;;0.77;0.77;;;;;;;7.10;89.69;98986.38;5094097;28;20202;-71
2023/03/15 01:55:55;;;;;;;0.90;0.90;;;;;;;7.20;90.29;99004.53;5093395;28;20198;-71
2023/03/15 01:58:26;;;;;;;0.70;0.70;;;;;;;7.08;90.26;98998.34;5093648;28;20610;-71
2023/03/15 02:00:54;;;;;;;0.70;0.70;;;;;;;7.13;91.67;99001.88;5092358;28;20210;-71
2023/03/15 02:03:25;;;;;;;0.80;0.80;;;;;;;7.00;91.03;99000.84;5092272;28;20217;-70
2023/03/15 02:05:57;;;;;;;1.00;1.00;;;;;;;6.95;91.67;98993.09;5093800;28;20198;-70
2023/03/15 02:08:29;;;;;;;0.90;0.90;;;;;;;7.11;91.78;99008.69;5093507;28;20605;-71
2023/03/15 02:10:58;;;;;;;0.80;0.80;;;;;;;7.23;91.97;99025.19;5093770;28;20194;-71
2023/03/15 02:13:29;;;;;;;0.80;0.80;;;;;;;7.32;90.96;99021.81;5094144;28;20684;-71
2023/03/15 02:15:56;;;;;;;0.70;0.70;;;;;;;7.25;90.61;99018.31;5085045;28;20243;-71
2023/03/15 02:18:23;;;;;;;0.87;0.87;;;;;;;7.21;90.79;99024.28;5093648;28;20206;-71
2023/03/15 02:20:59;;;;;;;1.03;1.03;;;;;;;7.25;90.18;99023.47;5093454;28;20213;-71
2023/03/15 02:23:27;;;;;;;0.73;0.73;;;;;;;7.19;90.59;99013.09;5093325;28;20194;-71
2023/03/15 02:26:04;;;;;;;0.70;0.70;;;;;;;7.23;91.69;99019.16;5093373;28;20664;-71
2023/03/15 02:28:32;;;;;;;0.77;0.77;;;;;;;7.21;91.61;99016.53;5093717;28;20198;-71
2023/03/15 02:30:59;;;;;;;0.90;0.90;;;;;;;7.08;92.19;99008.66;5092748;28;20240;-71
2023/03/15 02:33:29;;;;;;;0.87;0.87;;;;;;;7.06;93.44;98997.50;5092885;28;20668;-71
2023/03/15 02:36:05;;;;;;;0.60;0.60;;;;;;;6.89;93.19;98987.84;5093241;28;20206;-71
2023/03/15 02:38:32;;;;;;;0.90;0.90;;;;;;;6.94;90.49;99000.78;5093462;28;20201;-71
2023/03/15 02:40:59;;;;;;;0.80;0.80;;;;;;;6.96;87.52;99019.69;5092749;28;20194;-71
2023/03/15 02:43:30;;;;;;;0.80;0.80;;;;;;;6.87;86.23;99020.47;5057958;28;20652;-71
2023/03/15 02:45:59;;;;;;;0.80;0.80;;;;;;;6.79;85.08;99027.22;5092590;28;20198;-71
2023/03/15 02:48:27;;;;;;;0.90;0.90;;;;;;;6.56;83.46;98986.56;5093563;28;20679;-72
2023/03/15 02:50:53;;;;;;;0.83;0.83;;;;;;;6.25;82.86;98955.25;5092664;28;20198;-72
2023/03/15 02:53:20;;;;;;;0.67;0.67;;;;;;;6.44;82.64;99003.56;5093085;28;20584;-72
2023/03/15 02:55:47;;;;;;;1.00;1.00;;;;;;;6.36;83.35;99012.88;5092507;28;20230;-71
2023/03/15 02:58:14;;;;;;;1.00;1.00;;;;;;;6.15;84.49;99010.00;5092649;28;20606;-72
2023/03/15 03:00:41;;;;;;;1.00;1.00;;;;;;;6.13;84.23;99011.69;5092655;28;20197;-71
2023/03/15 03:03:10;;;;;;;0.90;0.90;;;;;;;6.25;85.00;99008.41;5092934;28;20205;-72
2023/03/15 03:05:37;;;;;;;0.90;0.90;;;;;;;6.20;85.54;99008.38;5092721;28;20219;-72
2023/03/15 03:08:04;;;;;;;0.90;0.90;;;;;;;6.17;85.95;99005.72;5093292;28;20202;-72
2023/03/15 03:10:31;;;;;;;0.80;0.80;;;;;;;6.12;86.38;99003.94;5057194;28;20621;-72
2023/03/15 03:12:58;;;;;;;0.80;0.80;;;;;;;6.09;86.52;99012.50;5093092;28;20202;-71
2023/03/15 03:15:24;;;;;;;0.83;0.83;;;;;;;5.93;87.25;99019.09;5090399;28;20210;-71
2023/03/15 03:17:53;;;;;;;0.90;0.90;;;;;;;5.92;88.73;99017.34;5092291;28;20194;-71
2023/03/15 03:20:21;;;;;;;0.70;0.70;;;;;;;5.92;90.96;99014.78;5092272;28;20194;-71
2023/03/15 03:22:48;;;;;;;0.90;0.90;;;;;;;5.87;91.90;99012.97;5092106;28;20202;-71
2023/03/15 03:25:14;;;;;;;1.00;1.00;;;;;;;5.80;91.79;98985.41;5091921;28;20229;-71
2023/03/15 03:27:42;;;;;;;1.00;1.00;;;;;;;5.90;91.47;99007.88;5092420;28;20201;-71
2023/03/15 03:30:12;;;;;;;0.83;0.83;;;;;;;5.96;90.43;99007.97;5092241;28;20198;-71
2023/03/15 03:32:40;;;;;;;1.00;1.00;;;;;;;5.95;89.90;98990.84;5056825;28;20202;-71
2023/03/15 03:35:07;;;;;;;0.70;0.70;;;;;;;5.99;89.93;99013.19;5054505;28;20209;-70
2023/03/15 03:37:35;;;;;;;0.70;0.70;;;;;;;5.97;89.97;98995.16;5040760;28;20206;-71
2023/03/15 03:40:05;;;;;;;0.80;0.80;;;;;;;6.00;89.91;99004.63;5091714;28;20293;-71
2023/03/15 03:42:32;;;;;;;1.00;1.00;;;;;;;6.04;88.52;99003.81;5092479;28;20198;-72
2023/03/15 03:44:59;;;;;;;0.90;0.90;;;;;;;6.08;87.27;99005.59;5090596;28;20218;-72
2023/03/15 03:47:26;;;;;;;0.80;0.80;;;;;;;6.11;87.20;99003.06;5039999;28;20198;-72
2023/03/15 03:49:52;;;;;;;0.90;0.90;;;;;;;6.00;87.42;98994.31;5055797;28;20205;-72
2023/03/15 03:52:19;;;;;;;0.93;0.93;;;;;;;5.89;86.61;98990.72;5055170;28;20248;-71
2023/03/15 03:54:47;;;;;;;0.90;0.90;;;;;;;5.90;86.76;98989.88;5055046;28;20699;-71
2023/03/15 03:57:14;;;;;;;0.90;0.90;;;;;;;5.79;86.92;98957.94;5089667;28;20210;-72
2023/03/15 03:59:41;;;;;;;0.93;0.93;;;;;;;5.56;88.48;98962.75;5089133;28;20206;-72
2023/03/15 04:02:08;;;;;;;1.00;1.00;;;;;;;5.72;89.16;98972.41;5091340;28;20587;-72
2023/03/15 04:04:35;;;;;;;0.70;0.70;;;;;;;5.27;90.70;98905.72;5090229;28;20875;-73
2023/03/15 04:07:01;;;;;;;0.90;0.90;;;;;;;6.65;100.00;98968.63;5091784;28;20455;-71
2023/03/15 04:09:28;;;;;;;1.33;1.33;;;;;;;6.27;97.34;98976.75;5091251;28;20221;-70
2023/03/15 04:11:56;;;;;;;0.87;0.87;;;;;;;6.26;99.38;98975.00;5090798;28;20197;-70
2023/03/15 04:14:24;;;;;;;0.60;0.60;;;;;;;6.37;96.92;98970.88;5090064;28;20435;-72
2023/03/15 04:16:51;;;;;;;0.87;0.87;;;;;;;6.01;92.65;98913.75;5090331;28;20190;-72
2023/03/15 04:19:17;;;;;;;0.80;0.80;;;;;;;6.55;100.00;98948.78;5091134;28;20206;-71
2023/03/15 04:21:46;;;;;;;0.70;0.70;;;;;;;6.51;94.69;98978.78;5075415;28;20202;-72
2023/03/15 04:24:13;;;;;;;0.73;0.73;;;;;;;6.44;92.54;98977.84;5071365;28;20225;-71
2023/03/15 04:26:40;;;;;;;0.80;0.80;;;;;;;6.29;93.06;98971.59;5071392;28;20199;-72
2023/03/15 04:29:10;;;;;;;0.80;0.80;;;;;;;6.37;94.21;98964.84;5071171;28;20191;-72
2023/03/15 04:31:37;;;;;;;0.70;0.70;;;;;;;6.30;93.40;98969.06;5085612;28;20212;-72
2023/03/15 04:34:05;;;;;;;0.90;0.90;;;;;;;6.30;92.96;98960.47;5091369;28;20202;-72
2023/03/15 04:36:31;;;;;;;0.80;0.80;;;;;;;6.33;93.16;98976.81;5091289;28;20209;-72
2023/03/15 04:39:04;;;;;;;0.87;0.87;;;;;;;6.30;92.43;98979.34;5090984;28;20589;-72
2023/03/15 04:41:33;;;;;;;0.83;0.83;;;;;;;6.15;93.18;98962.81;5090959;28;20281;-72
2023/03/15 04:44:00;;;;;;;0.80;0.80;;;;;;;6.32;100.00;98982.78;5089238;28;20217;-71
2023/03/15 04:46:28;;;;;;;0.90;0.90;;;;;;;6.44;98.48;98988.13;5083464;28;20230;-73
2023/03/15 04:48:55;;;;;;;0.90;0.90;;;;;;;6.44;94.61;98988.13;5033922;28;20198;-73
2023/03/15 04:51:22;;;;;;;0.90;0.90;;;;;;;6.52;93.49;98992.50;5089089;28;20205;-73
2023/03/15 04:53:49;;;;;;;0.80;0.80;;;;;;;6.27;94.50;98963.00;5082321;28;20190;-73
2023/03/15 04:56:15;;;;;;;0.90;0.90;;;;;;;6.39;95.78;98989.75;5090851;28;20213;-73
2023/03/15 04:58:42;;;;;;;0.80;0.80;;;;;;;6.26;96.76;98971.56;5090847;28;20238;-73
2023/03/15 05:01:09;;;;;;;0.80;0.80;;;;;;;6.19;98.62;98975.75;5090755;28;20205;-72
2023/03/15 05:03:37;;;;;;;0.90;0.90;;;;;;;6.09;100.00;98973.91;5090616;28;20587;-71
2023/03/15 05:06:06;;;;;;;0.87;0.87;;;;;;;6.09;100.00;98980.75;5090311;28;20245;-72
2023/03/15 05:08:34;;;;;;;0.87;0.87;;;;;;;5.96;100.00;98977.97;5090744;28;20289;-72
2023/03/15 05:11:01;;;;;;;1.07;1.07;;;;;;;5.84;100.00;98946.91;5055320;28;20225;-72
2023/03/15 05:13:28;;;;;;;0.90;0.90;;;;;;;5.89;100.00;98944.41;5090353;28;20197;-72
2023/03/15 05:15:54;;;;;;;2.23;2.10;;;;;;;6.10;100.00;98961.91;5090214;28;20194;-73
2023/03/15 05:18:22;;;;;;;1.00;1.00;;;;;;;6.21;100.00;98952.59;5090591;28;20202;-73
2023/03/15 05:20:50;;;;;;;0.90;0.90;;;;;;;6.36;100.00;98965.69;5090654;28;20198;-72
2023/03/15 05:23:17;;;;;;;1.03;1.03;;;;;;;6.34;100.00;98934.78;5090501;28;20210;-72
2023/03/15 05:25:44;;;;;;;0.90;0.90;;;;;;;6.63;99.80;98947.16;5038536;28;20708;-73
2023/03/15 05:28:10;;;;;;;0.90;0.90;;;;;;;6.88;98.38;98965.47;5090768;28;20202;-72
2023/03/15 05:30:37;;;;;;;0.70;0.70;;;;;;;6.91;97.64;98962.09;5090377;28;20198;-72
2023/03/15 05:33:04;;;;;;;0.80;0.80;;;;;;;7.04;96.69;98956.22;5090121;28;20205;-73
2023/03/15 05:35:31;;;;;;;0.70;0.70;;;;;;;7.13;95.84;98960.63;5090326;28;20214;-72
2023/03/15 05:38:00;;;;;;;0.80;0.80;;;;;;;7.42;93.94;98957.47;5090587;28;20319;-73
2023/03/15 05:40:28;;;;;;;0.90;0.90;;;;;;;7.42;92.23;98954.88;5090538;28;20297;-73
2023/03/15 05:42:55;;;;;;;0.90;0.90;;;;;;;7.58;90.25;98947.31;5090643;28;20263;-73
2023/03/15 05:45:22;;;;;;;0.97;0.97;;;;;;;7.73;90.41;98943.16;5090562;28;20226;-73
2023/03/15 05:47:49;;;;;;;0.90;0.90;;;;;;;7.82;89.04;98939.75;5090211;28;20213;-75
2023/03/15 05:50:16;;;;;;;0.90;0.90;;;;;;;7.89;88.23;98931.19;5070772;28;20207;-72
2023/03/15 05:52:43;;;;;;;0.95;0.95;;;;;;;7.82;86.24;98939.75;5088314;28;20186;-72
2023/03/15 05:55:11;;;;;;;0.80;0.80;;;;;;;7.85;87.32;98934.59;5089899;28;20209;-72
2023/03/15 05:57:38;;;;;;;0.70;0.70;;;;;;;7.84;87.59;98944.09;5079800;28;20226;-72
2023/03/15 06:00:07;;;;;;;0.80;0.80;;;;;;;8.02;87.22;98953.69;5090882;28;20202;-71
2023/03/15 06:02:34;;;;;;;1.80;1.75;;;;;;;7.93;86.26;98922.63;5090620;28;20665;-73
2023/03/15 06:05:01;;;;;;;0.65;0.65;;;;;;;8.29;84.82;98959.03;5088545;28;20238;-72
2023/03/15 06:07:28;;;;;;;0.73;0.73;;;;;;;8.36;84.73;98950.47;5090131;28;20205;-73
2023/03/15 06:09:55;;;;;;;0.70;0.70;;;;;;;8.82;100.00;98941.19;5041703;28;20205;-71
2023/03/15 06:12:23;;;;;;;0.93;0.93;;;;;;;8.53;96.61;98949.69;5053994;28;20198;-73
2023/03/15 06:14:50;;;;;;;0.70;0.70;;;;;;;8.25;88.25;98931.44;5093503;28;20217;-72
2023/03/15 06:17:17;;;;;;;0.70;0.70;;;;;;;8.43;85.32;98954.81;5093706;28;20231;-72
2023/03/15 06:19:44;;;;;;;0.77;0.77;;;;;;;8.26;85.52;98952.97;5093830;28;20201;-73
2023/03/15 06:22:11;;;;;;;0.88;0.88;;;;;;;8.15;85.09;98924.50;5093476;28;20198;-73
2023/03/15 06:24:37;;;;;;;0.80;0.80;;;;;;;8.44;84.84;98946.22;5092998;28;20221;-74
2023/03/15 06:27:04;;;;;;;0.80;0.80;;;;;;;8.45;87.33;98937.59;5071157;28;20245;-71
2023/03/15 06:29:33;;;;;;;0.70;0.70;;;;;;;8.60;83.83;98954.03;5093652;28;20198;-71
2023/03/15 06:31:59;;;;;;;0.80;0.80;;;;;;;8.53;92.82;98944.50;5057503;28;20209;-71
2023/03/15 06:34:26;;;;;;;0.80;0.80;;;;;;;8.65;84.13;98947.16;5057432;28;20190;-69
2023/03/15 06:36:53;;;;;;;0.60;0.60;;;;;;;8.70;82.23;98936.00;5093255;28;20210;-71
2023/03/15 06:39:20;;;;;;;2.00;1.90;;;;;;;8.61;82.82;98929.91;5035255;28;20198;-71
2023/03/15 06:41:46;;;;;;;0.70;0.70;;;;;;;8.64;83.23;98911.84;5093074;28;20648;-72
2023/03/15 06:44:13;;;;;;;0.73;0.73;;;;;;;8.43;84.78;98916.06;5057542;28;20633;-70
2023/03/15 06:46:41;;;;;;;0.80;0.80;;;;;;;8.56;84.56;98916.13;5093020;28;20222;-70
2023/03/15 06:49:08;;;;;;;0.80;0.80;;;;;;;8.41;85.20;98906.59;5092763;28;20202;-69
2023/03/15 06:51:35;;;;;;;0.70;0.70;;;;;;;9.01;100.00;98916.28;5092840;28;20198;-74
2023/03/15 06:54:02;;;;;;;0.75;0.75;;;;;;;9.84;100.00;98911.19;5092692;28;20202;-73
2023/03/15 06:56:29;;;;;;;1.20;1.20;;;;;;;10.40;95.90;98903.31;5085922;28;20222;-73
2023/03/15 06:58:55;;;;;;;0.90;0.90;;;;;;;11.18;84.81;98932.31;5085811;28;20237;-75
2023/03/15 07:01:23;;;;;;;0.60;0.60;;;;;;;11.34;79.67;98920.97;5078385;28;20195;-73
2023/03/15 07:03:52;;;;;;;0.70;0.70;;;;;;;11.54;76.58;98943.31;5092603;28;20202;-74
2023/03/15 07:06:18;;;;;;;0.70;0.70;;;;;;;11.58;69.01;98932.06;5092285;28;20727;-72
2023/03/15 07:08:45;;;;;;;0.75;0.75;;;;;;;11.27;71.02;98947.81;5092456;28;20205;-70
2023/03/15 07:11:13;;;;;;;0.70;0.70;;;;;;;11.13;76.86;98947.03;5092387;28;20198;-70
2023/03/15 07:13:39;;;;;;;0.70;0.70;;;;;;;10.88;72.09;98945.44;5092343;28;20205;-72
2023/03/15 07:16:06;;;;;;;0.77;0.77;;;;;;;10.22;68.23;98867.09;5092413;28;20209;-72
2023/03/15 07:18:33;;;;;;;0.77;0.77;;;;;;;10.77;68.37;98950.66;5020779;28;20655;-72
2023/03/15 07:21:03;;;;;;;0.85;0.85;;;;;;;10.68;67.69;98942.06;5083755;28;20194;-72
2023/03/15 07:23:30;;;;;;;0.90;0.90;;;;;;;10.44;68.46;98941.31;5073726;28;20199;-72
2023/03/15 07:25:57;;;;;;;0.70;0.70;;;;;;;10.31;75.71;98931.81;5082534;28;20266;-68
2023/03/15 07:28:26;;;;;;;0.80;0.80;;;;;;;9.71;74.87;98905.97;5092008;28;20206;-72
2023/03/15 07:30:54;;;;;;;0.90;0.90;;;;;;;9.87;74.61;98931.00;5092120;28;20209;-72
2023/03/15 07:33:21;;;;;;;0.82;0.82;;;;;;;9.93;74.62;98928.41;5077699;28;20198;-72
2023/03/15 07:35:48;;;;;;;0.70;0.70;;;;;;;9.77;74.42;98929.31;5053066;28;20252;-72
2023/03/15 07:38:17;;;;;;;0.73;0.73;;;;;;;9.56;75.61;98916.38;5071650;28;20285;-71
2023/03/15 07:40:44;;;;;;;0.70;0.70;;;;;;;9.26;76.67;98941.34;5077634;28;20197;-73
2023/03/15 07:43:11;;;;;;;0.70;0.70;;;;;;;9.19;77.44;98952.53;5091932;28;20198;-72
2023/03/15 07:45:38;;;;;;;1.08;1.08;;;;;;;9.56;81.18;98947.41;5035850;28;20227;-71
2023/03/15 07:48:05;;;;;;;0.80;0.80;;;;;;;9.95;74.75;98947.41;5082090;28;20701;-71
2023/03/15 07:50:32;;;;;;;0.98;0.98;;;;;;;10.06;72.78;98950.00;5091563;28;20213;-70
2023/03/15 07:52:59;;;;;;;0.70;0.70;;;;;;;10.28;84.76;98943.91;5091595;28;20209;-72
2023/03/15 07:55:27;;;;;;;0.80;0.80;;;;;;;10.38;72.51;98927.50;5091435;28;20661;-71
2023/03/15 07:57:54;;;;;;;0.70;0.70;;;;;;;10.56;70.75;98942.13;5091656;28;20222;-71
2023/03/15 08:00:21;;;;;;;1.27;1.27;;;;;;;10.56;68.59;98905.84;5091486;28;20681;-72
2023/03/15 08:02:48;;;;;;;0.80;0.80;;;;;;;10.65;67.70;98947.28;5091549;28;20289;-72
2023/03/15 08:05:17;;;;;;;0.70;0.70;;;;;;;10.85;67.30;98948.91;5091709;28;20206;-73
2023/03/15 08:07:45;;;;;;;1.73;1.70;;;;;;;10.60;67.94;98913.59;5091842;28;20206;-72
2023/03/15 08:10:12;;;;;;;0.95;0.95;;;;;;;10.91;66.72;98959.25;5091719;28;20233;-72
2023/03/15 08:12:41;;;;;;;0.70;0.70;;;;;;;10.97;65.36;98955.78;5040080;28;20720;-72
2023/03/15 08:15:10;;;;;;;0.70;0.70;;;;;;;10.80;65.85;98949.81;5091451;28;20384;-71
2023/03/15 08:17:37;;;;;;;0.60;0.60;;;;;;;10.66;65.88;98936.03;5091338;28;20309;-71
2023/03/15 08:20:05;;;;;;;0.90;0.90;;;;;;;11.14;65.36;98942.72;5091412;28;20194;-71
2023/03/15 08:22:32;;;;;;;0.70;0.70;;;;;;;11.08;64.84;98951.41;5091504;28;20194;-72
2023/03/15 08:24:58;;;;;;;0.70;0.70;;;;;;;10.91;65.31;98951.47;5091324;28;20210;-73
2023/03/15 08:27:25;;;;;;;1.15;1.15;;;;;;;10.67;66.23;98943.81;5091401;28;20616;-71
2023/03/15 08:29:53;;;;;;;0.70;0.70;;;;;;;10.99;64.79;98943.66;5091286;28;20202;-72
2023/03/15 08:32:20;;;;;;;0.82;0.82;;;;;;;11.04;64.51;98936.72;5090676;28;20637;-71
2023/03/15 08:34:47;;;;;;;0.70;0.70;;;;;;;11.29;63.07;98909.78;5091518;28;20222;-72
2023/03/15 08:37:14;;;;;;;0.70;0.70;;;;;;;10.79;63.39;98854.75;5091189;28;20202;-73
2023/03/15 08:39:41;;;;;;;1.27;1.23;;;;;;;11.49;63.03;98934.69;5091253;28;20194;-72
2023/03/15 08:42:08;;;;;;;0.70;0.70;;;;;;;11.27;63.35;98923.63;5091372;28;20194;-73
2023/03/15 08:44:35;;;;;;;0.50;0.50;;;;;;;11.49;63.55;98950.28;5091219;28;20201;-72
2023/03/15 08:47:04;;;;;;;0.80;0.80;;;;;;;11.04;65.52;98960.06;5090878;28;20609;-72
2023/03/15 08:49:31;;;;;;;0.70;0.70;;;;;;;11.11;65.69;98951.38;5090899;28;20194;-71
2023/03/15 08:51:57;;;;;;;1.00;1.00;;;;;;;11.34;65.38;98941.72;5091120;28;20190;-73
2023/03/15 08:54:26;;;;;;;0.88;0.88;;;;;;;11.61;64.27;98937.22;5055644;28;20193;-72
2023/03/15 08:56:53;;;;;;;0.70;0.70;;;;;;;11.15;65.03;98928.88;5090844;28;20264;-71
2023/03/15 08:59:19;;;;;;;0.77;0.77;;;;;;;11.32;65.36;98917.53;5090670;28;20233;-72
2023/03/15 09:01:46;;;;;;;0.60;0.60;;;;;;;11.36;65.11;98929.63;5055508;28;20194;-72
2023/03/15 09:04:15;;;;;;;0.60;0.60;;;;;;;11.76;64.55;98918.97;5055386;28;20284;-71
2023/03/15 09:06:42;;;;;;;0.60;0.60;;;;;;;11.91;63.41;98924.03;5090718;28;20649;-72
2023/03/15 09:09:09;;;;;;;1.17;1.17;;;;;;;11.85;63.21;98918.88;5090815;28;20547;-72
2023/03/15 09:11:35;;;;;;;0.82;0.82;;;;;;;11.96;63.26;98914.44;5090697;28;20194;-72
2023/03/15 09:14:02;;;;;;;0.60;0.60;;;;;;;11.94;61.45;98890.22;5090728;28;20201;-71
2023/03/15 09:16:29;;;;;;;0.70;0.70;;;;;;;12.18;61.54;98928.09;5089163;28;20210;-72
2023/03/15 09:18:56;;;;;;;0.70;0.70;;;;;;;12.59;61.35;98930.25;5081719;28;20198;-72
2023/03/15 09:21:24;;;;;;;0.65;0.65;;;;;;;12.88;59.29;98922.94;5090415;28;20202;-72
2023/03/15 09:23:51;;;;;;;0.65;0.65;;;;;;;12.46;59.83;98931.25;5089448;28;20201;-72
2023/03/15 09:26:18;;;;;;;0.90;0.90;;;;;;;12.84;59.28;98931.69;5084307;28;20296;-72
2023/03/15 09:28:44;;;;;;;0.65;0.65;;;;;;;13.16;58.10;98932.13;5090269;28;20194;-71
2023/03/15 09:31:11;;;;;;;0.73;0.73;;;;;;;13.29;57.58;98933.69;5090424;28;20217;-71
2023/03/15 09:33:38;;;;;;;0.70;0.70;;;;;;;13.45;56.94;98928.25;5086099;28;20251;-70
2023/03/15 09:36:05;;;;;;;0.60;0.60;;;;;;;13.38;57.12;98925.72;5080386;28;20798;-70
2023/03/15 09:38:33;;;;;;;0.70;0.70;;;;;;;13.73;56.13;98930.38;5054822;28;20202;-70
2023/03/15 09:41:02;;;;;;;0.80;0.80;;;;;;;13.74;55.86;98926.91;5090259;28;20256;-71
2023/03/15 09:43:48;;;;;;;0.70;0.70;;;;;;;13.59;55.46;98929.75;5090698;28;20224;-71
2023/03/15 09:46:26;;;;;;;0.63;0.63;;;;;;;13.24;56.53;98917.25;5084100;28;20229;-71
2023/03/15 09:48:59;;;;;;;0.60;0.60;;;;;;;13.48;56.30;98918.66;5094037;28;20210;-71
2023/03/15 09:51:38;;;;;;;0.70;0.70;;;;;;;13.49;55.72;98907.34;5093881;28;20205;-71
2023/03/15 09:54:11;;;;;;;0.82;0.82;;;;;;;14.33;54.25;98925.88;5075903;28;20217;-71
2023/03/15 09:56:44;;;;;;;0.60;0.60;;;;;;;14.14;53.19;98914.06;5084590;28;20209;-70
2023/03/15 09:59:15;;;;;;;0.60;0.60;;;;;;;14.29;53.41;98933.78;5093855;28;20712;-76
2023/03/15 10:01:42;;;;;;;0.60;0.60;;;;;;;14.21;52.71;98894.81;5093737;28;20198;-71
2023/03/15 10:04:18;;;;;;;0.70;0.70;;;;;;;14.44;52.57;98924.84;5093742;28;21654;-72
2023/03/15 10:06:53;;;;;;;0.60;0.60;;;;;;;14.30;52.49;98920.69;5083669;28;20248;-72
2023/03/15 10:09:23;;;;;;;0.60;0.60;;;;;;;14.02;53.83;98901.22;5037918;28;20734;-72
2023/03/15 10:12:01;;;;;;;0.77;0.77;;;;;;;14.68;51.61;98921.75;5083427;28;20202;-71
2023/03/15 10:14:49;;;;;;;0.60;0.60;;;;;;;14.72;51.33;98911.22;5060087;28;20194;-71
2023/03/15 10:17:24;;;;;;;0.70;0.70;;;;;;;15.01;50.39;98904.53;5090463;28;20700;-70
2023/03/15 10:19:53;;;;;;;0.75;0.75;;;;;;;15.03;58.28;98894.91;5045097;28;20201;-69
2023/03/15 10:22:24;;;;;;;0.95;0.95;;;;;;;14.69;50.88;98897.38;5093590;28;20210;-71
2023/03/15 10:24:57;;;;;;;0.60;0.60;;;;;;;15.02;50.91;98890.59;5093219;28;20190;-71
2023/03/15 10:27:31;;;;;;;0.52;0.52;;;;;;;14.85;49.75;98904.00;5093248;28;20612;-70
2023/03/15 10:30:00;;;;;;;0.60;0.60;;;;;;;14.77;50.32;98895.44;5078995;28;20212;-72
2023/03/15 10:32:30;;;;;;;0.60;0.60;;;;;;;14.76;49.35;98898.97;5093267;28;20635;-72
2023/03/15 10:34:58;;;;;;;0.60;0.60;;;;;;;14.97;50.19;98893.31;5042484;28;20683;-71
2023/03/15 10:37:25;;;;;;;0.70;0.70;;;;;;;15.30;49.36;98884.69;5093219;28;20640;-71
2023/03/15 10:39:58;;;;;;;0.70;0.70;;;;;;;15.42;48.72;98885.31;5093034;28;20216;-71
2023/03/15 10:42:29;;;;;;;0.90;0.90;;;;;;;15.15;48.46;98881.59;5093216;28;20206;-71
2023/03/15 10:44:56;;;;;;;3.10;1.48;;;;;;;14.81;49.92;98881.47;5092945;28;20202;-70
2023/03/15 10:47:25;;;;;;;0.70;0.70;;;;;;;15.58;56.79;98879.72;5092883;28;20613;-70
2023/03/15 10:49:56;;;;;;;0.70;0.70;;;;;;;15.52;50.54;98876.41;5092936;28;20600;-70
2023/03/15 10:52:35;;;;;;;0.60;0.60;;;;;;;15.49;50.07;98872.09;5072916;28;20203;-69
2023/03/15 10:55:06;;;;;;;0.68;0.68;;;;;;;15.49;49.86;98863.41;5086924;28;20201;-71
2023/03/15 10:57:39;;;;;;;0.60;0.60;;;;;;;15.57;49.10;98859.72;5049713;28;20230;-72
2023/03/15 11:00:22;;;;;;;0.60;0.60;;;;;;;15.14;49.07;98864.19;5072754;28;20190;-72
2023/03/15 11:02:51;;;;;;;0.70;0.70;;;;;;;15.24;49.84;98865.69;5072849;28;20662;-71
2023/03/15 11:05:20;;;;;;;0.70;0.70;;;;;;;15.11;50.49;98864.28;5072506;28;20233;-70
2023/03/15 11:07:58;;;;;;;0.93;0.93;;;;;;;15.26;50.68;98877.84;5072519;28;20230;-71
2023/03/15 11:10:28;;;;;;;0.70;0.70;;;;;;;15.65;49.92;98872.59;5072634;28;20194;-70
2023/03/15 11:13:12;;;;;;;0.60;0.60;;;;;;;16.15;49.61;98866.91;5021193;28;20198;-71
2023/03/15 11:15:40;;;;;;;0.60;0.60;;;;;;;15.94;48.92;98843.09;5020747;28;20298;-71
2023/03/15 11:18:16;;;;;;;0.85;0.85;;;;;;;15.75;49.41;98861.00;5072455;28;20521;-71
2023/03/15 11:20:44;;;;;;;0.60;0.60;;;;;;;16.03;48.42;98863.75;5072199;28;20198;-71
2023/03/15 11:23:15;;;;;;;0.65;0.65;;;;;;;16.32;47.57;98867.31;5072238;28;20231;-71
2023/03/15 11:25:44;;;;;;;0.65;0.65;;;;;;;16.19;47.61;98860.72;5020870;28;20202;-71
2023/03/15 11:28:18;;;;;;;0.80;0.80;;;;;;;15.96;47.35;98864.81;5072164;28;20226;-71
2023/03/15 11:30:46;;;;;;;0.70;0.70;;;;;;;16.04;47.87;98863.72;5020694;28;20238;-71
2023/03/15 11:33:26;;;;;;;0.60;0.60;;;;;;;16.33;47.44;98866.41;5072046;28;20217;-71
2023/03/15 11:35:55;;;;;;;0.70;0.70;;;;;;;16.21;47.47;98858.91;5071967;28;20202;-71
2023/03/15 11:38:32;;;;;;;0.90;0.90;;;;;;;16.24;46.91;98866.66;5020728;28;20688;-71
2023/03/15 11:41:02;;;;;;;0.80;0.80;;;;;;;16.48;46.36;98867.72;5072125;28;20198;-71
2023/03/15 11:43:40;;;;;;;0.70;0.70;;;;;;;16.55;45.86;98863.19;5071751;28;20670;-71
2023/03/15 11:46:14;;;;;;;0.70;0.70;;;;;;;16.45;45.13;98851.25;5071848;28;20207;-71